createdAt,value
2018-07-03T00:01:16.164Z,14.50
2018-07-03T00:03:44.432Z,14.50
2018-07-03T00:06:12.685Z,14.50
2018-07-03T00:08:40.947Z,14.40
2018-07-03T00:11:09.219Z,14.40
2018-07-03T00:13:37.479Z,14.40
2018-07-03T00:16:05.810Z,14.30
2018-07-03T00:18:34.064Z,14.30
2018-07-03T00:21:02.359Z,14.20
2018-07-03T00:23:30.612Z,14.20
2018-07-03T00:25:58.889Z,14.20
2018-07-03T00:28:27.152Z,14.20
2018-07-03T00:30:55.409Z,14.20
2018-07-03T00:33:23.661Z,14.10
2018-07-03T00:35:51.921Z,14.10
2018-07-03T00:38:20.177Z,14.00
2018-07-03T00:40:48.433Z,14.00
2018-07-03T00:43:16.680Z,14.00
2018-07-03T00:45:44.943Z,14.00
2018-07-03T00:48:13.207Z,14.00
2018-07-03T00:50:41.461Z,14.00
2018-07-03T00:53:09.713Z,14.00
2018-07-03T00:55:37.972Z,13.90
2018-07-03T00:58:06.244Z,13.90
2018-07-03T01:00:35.667Z,13.80
2018-07-03T01:03:04.592Z,13.70
2018-07-03T01:05:33.041Z,13.70
2018-07-03T01:08:01.317Z,13.70
2018-07-03T01:10:29.568Z,13.60
2018-07-03T01:12:57.884Z,13.60
2018-07-03T01:15:27.064Z,13.50
2018-07-03T01:17:55.420Z,13.50
2018-07-03T01:20:23.680Z,13.50
2018-07-03T01:22:52.237Z,13.50
2018-07-03T01:25:20.505Z,13.60
2018-07-03T01:27:48.765Z,13.60
2018-07-03T01:30:17.027Z,13.60
2018-07-03T01:32:45.279Z,13.50
2018-07-03T01:35:13.539Z,13.40
2018-07-03T01:37:41.808Z,13.40
2018-07-03T01:40:10.074Z,13.40
2018-07-03T01:42:38.349Z,13.40
2018-07-03T01:45:06.631Z,13.40
2018-07-03T01:47:34.877Z,13.40
2018-07-03T01:50:03.146Z,13.40
2018-07-03T01:52:31.404Z,13.40
2018-07-03T01:54:59.651Z,13.40
2018-07-03T01:57:27.908Z,13.30
2018-07-03T01:59:56.174Z,13.30
2018-07-03T02:02:24.425Z,13.30
2018-07-03T02:04:52.709Z,13.30
2018-07-03T02:07:20.976Z,13.20
2018-07-03T02:09:49.230Z,13.20
2018-07-03T02:12:17.492Z,13.20
2018-07-03T02:14:45.756Z,13.30
2018-07-03T02:17:14.032Z,13.30
2018-07-03T02:19:42.268Z,13.30
2018-07-03T02:22:10.568Z,13.20
2018-07-03T02:24:38.836Z,13.20
2018-07-03T02:27:07.116Z,13.10
2018-07-03T02:29:35.381Z,13.10
2018-07-03T02:32:03.645Z,13.00
2018-07-03T02:34:31.905Z,13.10
2018-07-03T02:37:00.173Z,13.10
2018-07-03T02:39:28.445Z,13.10
2018-07-03T02:41:56.693Z,13.00
2018-07-03T02:44:24.973Z,13.10
2018-07-03T02:46:53.233Z,13.00
2018-07-03T02:49:21.494Z,13.00
2018-07-03T02:51:49.760Z,13.00
2018-07-03T02:54:18.032Z,13.00
2018-07-03T02:56:46.305Z,13.00
2018-07-03T02:59:14.553Z,12.90
2018-07-03T03:01:42.816Z,12.90
2018-07-03T03:04:11.100Z,12.90
2018-07-03T03:06:39.368Z,12.90
2018-07-03T03:09:09.052Z,12.90
2018-07-03T03:11:37.320Z,12.90
2018-07-03T03:14:05.626Z,12.90
2018-07-03T03:16:33.893Z,12.90
2018-07-03T03:19:02.177Z,12.90
2018-07-03T03:21:30.440Z,12.90
2018-07-03T03:23:58.700Z,12.90
2018-07-03T03:26:26.974Z,12.90
2018-07-03T03:28:55.296Z,12.90
2018-07-03T03:31:23.553Z,12.90
2018-07-03T03:33:51.827Z,13.00
2018-07-03T03:36:20.097Z,13.10
2018-07-03T03:38:48.368Z,13.20
2018-07-03T03:41:16.664Z,13.30
2018-07-03T03:43:44.932Z,13.40
2018-07-03T03:46:13.212Z,13.40
2018-07-03T03:48:41.838Z,13.60
2018-07-03T03:51:10.112Z,13.90
2018-07-03T03:53:38.377Z,14.20
2018-07-03T03:56:06.940Z,14.50
2018-07-03T03:58:35.244Z,14.80
2018-07-03T04:01:03.514Z,15.10
2018-07-03T04:03:31.773Z,15.40
2018-07-03T04:06:00.040Z,15.70
2018-07-03T04:08:28.306Z,16.10
2018-07-03T04:10:56.556Z,16.40
2018-07-03T04:13:24.817Z,16.60
2018-07-03T04:15:53.091Z,16.80
2018-07-03T04:18:31.591Z,16.90
2018-07-03T04:20:59.938Z,17.10
2018-07-03T04:23:28.206Z,17.40
2018-07-03T04:25:56.512Z,17.60
2018-07-03T04:28:24.783Z,17.90
2018-07-03T04:30:53.051Z,18.20
2018-07-03T04:33:21.317Z,18.40
2018-07-03T04:35:49.585Z,18.60
2018-07-03T04:38:17.941Z,18.80
2018-07-03T04:40:46.244Z,18.90
2018-07-03T04:43:14.536Z,19.00
2018-07-03T04:45:42.782Z,19.00
2018-07-03T04:48:11.049Z,19.10
2018-07-03T04:50:39.309Z,19.00
2018-07-03T04:53:07.585Z,19.10
2018-07-03T04:55:35.874Z,19.20
2018-07-03T04:58:04.144Z,19.20
2018-07-03T05:00:32.404Z,19.20
2018-07-03T05:03:00.977Z,19.20
2018-07-03T05:05:29.340Z,19.10
2018-07-03T05:07:57.591Z,19.10
2018-07-03T05:10:25.882Z,19.20
2018-07-03T05:12:54.162Z,19.30
2018-07-03T05:15:22.429Z,19.30
2018-07-03T05:17:50.702Z,19.20
2018-07-03T05:20:18.963Z,19.30
2018-07-03T05:22:47.229Z,19.30
2018-07-03T05:25:15.478Z,19.20
2018-07-03T05:27:43.743Z,19.40
2018-07-03T05:30:12.020Z,19.70
2018-07-03T05:32:40.275Z,19.90
2018-07-03T05:35:08.544Z,19.90
2018-07-03T05:37:36.792Z,19.90
2018-07-03T05:40:05.369Z,19.40
2018-07-03T05:42:33.635Z,19.10
2018-07-03T05:45:01.898Z,19.00
2018-07-03T05:47:30.164Z,18.90
2018-07-03T05:49:58.456Z,18.90
2018-07-03T05:52:26.728Z,18.90
2018-07-03T05:54:54.990Z,19.00
2018-07-03T05:57:23.265Z,18.90
2018-07-03T05:59:51.519Z,18.60
2018-07-03T06:02:19.792Z,18.60
2018-07-03T06:04:48.066Z,18.60
2018-07-03T06:07:16.326Z,18.50
2018-07-03T06:09:44.588Z,18.50
2018-07-03T06:12:12.865Z,18.40
2018-07-03T06:14:41.124Z,18.40
2018-07-03T06:17:09.388Z,18.50
2018-07-03T06:19:37.650Z,18.70
2018-07-03T06:22:05.924Z,18.80
2018-07-03T06:24:34.196Z,19.00
2018-07-03T06:27:02.474Z,19.10
2018-07-03T06:29:30.749Z,19.10
2018-07-03T06:31:59.005Z,19.30
2018-07-03T06:34:27.264Z,19.40
2018-07-03T06:36:55.537Z,19.40
2018-07-03T06:39:23.807Z,19.40
2018-07-03T06:41:52.076Z,19.50
2018-07-03T06:44:20.333Z,19.50
2018-07-03T06:46:48.594Z,19.50
2018-07-03T06:49:16.843Z,19.60
2018-07-03T06:51:45.160Z,19.80
2018-07-03T06:54:13.369Z,19.90
2018-07-03T06:56:41.629Z,20.10
2018-07-03T06:59:09.925Z,20.20
2018-07-03T07:01:38.204Z,20.30
2018-07-03T07:04:06.520Z,20.30
2018-07-03T07:06:34.775Z,20.40
2018-07-03T07:09:03.335Z,20.40
2018-07-03T07:11:31.515Z,20.60
2018-07-03T07:13:59.816Z,21.00
2018-07-03T07:16:28.060Z,21.30
2018-07-03T07:18:56.319Z,21.50
2018-07-03T07:21:24.576Z,21.70
2018-07-03T07:23:53.153Z,21.50
2018-07-03T07:26:21.460Z,21.40
2018-07-03T07:28:49.738Z,21.40
2018-07-03T07:31:18.017Z,21.70
2018-07-03T07:33:46.265Z,21.90
2018-07-03T07:36:14.549Z,22.10
2018-07-03T07:38:42.812Z,22.20
2018-07-03T07:41:11.065Z,22.40
2018-07-03T07:43:39.327Z,22.50
2018-07-03T07:46:07.588Z,22.30
2018-07-03T07:48:37.208Z,22.10
2018-07-03T07:51:05.479Z,22.30
2018-07-03T07:53:39.226Z,22.60
2018-07-03T07:56:10.194Z,22.70
2018-07-03T07:58:38.552Z,22.70
2018-07-03T08:01:06.821Z,22.80
2018-07-03T08:03:35.081Z,22.80
2018-07-03T08:06:03.353Z,22.90
2018-07-03T08:08:31.625Z,22.90
2018-07-03T08:10:59.896Z,23.00
2018-07-03T08:13:28.161Z,23.00
2018-07-03T08:16:02.690Z,23.00
2018-07-03T08:18:30.938Z,22.70
2018-07-03T08:20:59.204Z,22.80
2018-07-03T08:23:33.996Z,22.80
2018-07-03T08:26:02.272Z,23.00
2018-07-03T08:28:30.534Z,23.30
2018-07-03T08:30:58.827Z,23.50
2018-07-03T08:33:27.088Z,23.80
2018-07-03T08:35:55.357Z,24.10
2018-07-03T08:38:23.616Z,24.10
2018-07-03T08:40:51.890Z,24.20
2018-07-03T08:43:20.174Z,24.00
2018-07-03T08:45:48.428Z,24.00
2018-07-03T08:48:16.705Z,24.20
2018-07-03T08:50:45.013Z,24.40
2018-07-03T08:53:13.272Z,24.40
2018-07-03T08:55:41.584Z,24.20
2018-07-03T08:58:09.891Z,24.20
2018-07-03T09:00:38.122Z,24.20
2018-07-03T09:03:06.383Z,23.90
2018-07-03T09:05:34.721Z,24.00
2018-07-03T09:08:03.006Z,24.20
2018-07-03T09:10:31.280Z,24.20
2018-07-03T09:12:59.538Z,24.40
2018-07-03T09:15:27.833Z,24.50
2018-07-03T09:17:56.167Z,24.70
2018-07-03T09:20:24.344Z,25.00
2018-07-03T09:22:52.610Z,25.40
2018-07-03T09:25:20.896Z,25.10
2018-07-03T09:27:49.144Z,24.90
2018-07-03T09:30:17.466Z,24.90
2018-07-03T09:32:45.688Z,24.90
2018-07-03T09:35:13.953Z,24.70
2018-07-03T09:37:42.223Z,24.80
2018-07-03T09:40:10.609Z,24.60
2018-07-03T09:42:38.875Z,24.70
2018-07-03T09:45:07.877Z,24.80
2018-07-03T09:47:36.173Z,24.60
2018-07-03T09:50:04.667Z,24.60
2018-07-03T09:52:32.928Z,24.60
2018-07-03T09:55:01.256Z,24.70
2018-07-03T09:57:29.457Z,24.60
2018-07-03T09:59:57.724Z,24.70
2018-07-03T10:02:25.969Z,24.50
2018-07-03T10:04:54.264Z,24.20
2018-07-03T10:07:22.533Z,24.10
2018-07-03T10:09:50.884Z,24.20
2018-07-03T10:12:19.156Z,24.30
2018-07-03T10:14:47.416Z,24.20
2018-07-03T10:17:15.687Z,24.20
2018-07-03T10:19:44.768Z,24.00
2018-07-03T10:22:13.040Z,23.90
2018-07-03T10:24:41.300Z,23.80
2018-07-03T10:27:09.577Z,23.90
2018-07-03T10:29:37.884Z,24.00
2018-07-03T10:32:06.287Z,24.30
2018-07-03T10:34:34.544Z,24.70
2018-07-03T10:37:02.809Z,24.80
2018-07-03T10:39:31.076Z,24.80
2018-07-03T10:41:59.360Z,24.90
2018-07-03T10:44:27.616Z,24.90
2018-07-03T10:46:55.969Z,25.00
2018-07-03T10:49:24.212Z,25.20
2018-07-03T10:51:52.488Z,25.50
2018-07-03T10:54:20.746Z,25.80
2018-07-03T10:56:49.024Z,25.90
2018-07-03T10:59:17.277Z,25.80
2018-07-03T11:01:45.528Z,25.70
2018-07-03T11:04:13.784Z,25.50
2018-07-03T11:06:42.045Z,25.50
2018-07-03T11:09:11.589Z,25.50
2018-07-03T11:11:39.850Z,25.50
2018-07-03T11:14:08.405Z,25.20
2018-07-03T11:16:36.677Z,25.20
2018-07-03T11:19:05.040Z,25.30
2018-07-03T11:21:33.293Z,25.10
2018-07-03T11:24:01.585Z,25.00
2018-07-03T11:26:29.878Z,25.00
2018-07-03T11:28:58.184Z,25.10
2018-07-03T11:31:26.458Z,25.20
2018-07-03T11:33:54.719Z,25.40
2018-07-03T11:36:22.965Z,25.60
2018-07-03T11:38:51.211Z,25.80
2018-07-03T11:41:19.464Z,25.90
2018-07-03T11:43:47.736Z,26.10
2018-07-03T11:46:16.071Z,26.20
2018-07-03T11:48:44.337Z,26.30
2018-07-03T11:51:13.625Z,26.40
2018-07-03T11:53:41.912Z,26.40
2018-07-03T11:56:10.161Z,26.40
2018-07-03T11:58:38.437Z,26.60
2018-07-03T12:01:06.722Z,26.70
2018-07-03T12:03:35.009Z,26.60
2018-07-03T12:06:03.284Z,26.60
2018-07-03T12:08:31.577Z,26.50
2018-07-03T12:10:59.864Z,26.50
2018-07-03T12:13:28.124Z,26.50
2018-07-03T12:15:56.387Z,26.50
2018-07-03T12:18:29.781Z,26.50
2018-07-03T12:20:58.135Z,26.50
2018-07-03T12:23:26.415Z,26.40
2018-07-03T12:25:54.663Z,26.20
2018-07-03T12:28:22.953Z,26.20
2018-07-03T12:30:51.238Z,26.10
2018-07-03T12:33:19.509Z,26.00
2018-07-03T12:35:47.751Z,26.00
2018-07-03T12:38:16.028Z,26.00
2018-07-03T12:40:44.298Z,26.20
2018-07-03T12:43:12.592Z,26.40
2018-07-03T12:45:40.856Z,26.50
2018-07-03T12:48:09.140Z,26.50
2018-07-03T12:50:37.409Z,26.60
2018-07-03T12:53:05.655Z,26.80
2018-07-03T12:55:33.928Z,26.90
2018-07-03T12:58:02.185Z,27.00
2018-07-03T13:00:30.447Z,27.10
2018-07-03T13:02:58.698Z,27.20
2018-07-03T13:05:26.992Z,27.30
2018-07-03T13:07:55.267Z,27.30
2018-07-03T13:10:23.550Z,27.00
2018-07-03T13:12:51.807Z,26.70
2018-07-03T13:15:20.105Z,26.60
2018-07-03T13:17:48.405Z,26.50
2018-07-03T13:20:16.688Z,26.20
2018-07-03T13:22:44.961Z,26.10
2018-07-03T13:25:13.539Z,26.10
2018-07-03T13:27:41.851Z,26.30
2018-07-03T13:30:10.600Z,26.50
2018-07-03T13:32:38.853Z,26.80
2018-07-03T13:35:08.321Z,26.70
2018-07-03T13:37:36.710Z,26.80
2018-07-03T13:40:05.372Z,26.90
2018-07-03T13:42:33.659Z,27.10
2018-07-03T13:45:01.900Z,27.20
2018-07-03T13:47:30.172Z,27.20
2018-07-03T13:49:58.427Z,27.10
2018-07-03T13:52:26.683Z,26.80
2018-07-03T13:54:55.004Z,26.60
2018-07-03T13:57:23.257Z,26.50
2018-07-03T13:59:51.524Z,26.30
2018-07-03T14:02:19.790Z,26.10
2018-07-03T14:04:48.035Z,25.70
2018-07-03T14:07:16.303Z,25.60
2018-07-03T14:09:44.569Z,25.80
2018-07-03T14:12:12.834Z,26.10
2018-07-03T14:14:41.109Z,26.40
2018-07-03T14:17:09.375Z,26.60
2018-07-03T14:19:37.662Z,26.50
2018-07-03T14:22:06.072Z,26.50
2018-07-03T14:24:34.309Z,26.50
2018-07-03T14:27:02.575Z,26.60
2018-07-03T14:29:30.849Z,26.70
2018-07-03T14:31:59.160Z,26.70
2018-07-03T14:34:27.404Z,26.80
2018-07-03T14:36:55.693Z,27.00
2018-07-03T14:39:23.956Z,26.90
2018-07-03T14:41:52.264Z,26.80
2018-07-03T14:44:20.535Z,26.80
2018-07-03T14:46:48.796Z,26.70
2018-07-03T14:49:17.079Z,26.60
2018-07-03T14:51:45.345Z,26.50
2018-07-03T14:54:13.612Z,26.40
2018-07-03T14:56:41.896Z,26.40
2018-07-03T14:59:10.160Z,26.40
2018-07-03T15:01:38.412Z,26.40
2018-07-03T15:04:06.699Z,26.30
2018-07-03T15:06:34.959Z,26.40
2018-07-03T15:09:04.876Z,26.40
2018-07-03T15:11:33.422Z,26.40
2018-07-03T15:14:02.007Z,26.40
2018-07-03T15:16:30.502Z,26.50
2018-07-03T15:19:04.404Z,26.70
2018-07-03T15:21:32.644Z,27.10
2018-07-03T15:24:00.934Z,27.30
2018-07-03T15:26:29.215Z,27.60
2018-07-03T15:28:57.471Z,27.80
2018-07-03T15:31:25.731Z,27.90
2018-07-03T15:33:54.008Z,27.90
2018-07-03T15:36:22.276Z,28.20
2018-07-03T15:38:50.556Z,28.40
2018-07-03T15:41:18.857Z,28.10
2018-07-03T15:43:58.315Z,28.00
2018-07-03T15:46:26.599Z,27.80
2018-07-03T15:48:54.988Z,27.90
2018-07-03T15:51:23.303Z,28.10
2018-07-03T15:53:51.616Z,29.10
2018-07-03T15:56:19.994Z,30.60
2018-07-03T15:58:48.213Z,31.90
2018-07-03T16:01:16.472Z,32.60
2018-07-03T16:05:55.769Z,33.20
2018-07-03T16:08:35.235Z,34.00
2018-07-03T16:11:03.508Z,34.70
2018-07-03T16:13:31.816Z,34.70
2018-07-03T16:16:00.068Z,34.60
2018-07-03T16:18:28.429Z,33.30
2018-07-03T16:20:56.685Z,32.50
2018-07-03T16:23:24.945Z,31.90
2018-07-03T16:25:53.224Z,32.60
2018-07-03T16:28:21.500Z,33.50
2018-07-03T16:30:49.759Z,34.00
2018-07-03T16:33:18.090Z,34.70
2018-07-03T16:35:47.123Z,34.80
2018-07-03T16:38:15.388Z,34.40
2018-07-03T16:40:43.693Z,32.80
2018-07-03T16:43:11.960Z,31.30
2018-07-03T16:45:40.216Z,30.70
2018-07-03T16:48:08.557Z,30.10
2018-07-03T16:50:36.786Z,30.20
2018-07-03T16:53:05.080Z,31.40
2018-07-03T16:55:33.325Z,32.50
2018-07-03T16:58:01.577Z,33.30
2018-07-03T17:00:29.858Z,33.90
2018-07-03T17:02:58.260Z,34.50
2018-07-03T17:05:26.541Z,34.90
2018-07-03T17:07:54.941Z,35.50
2018-07-03T17:10:23.205Z,35.40
2018-07-03T17:12:51.481Z,34.20
2018-07-03T17:15:19.756Z,33.00
2018-07-03T17:17:48.009Z,31.80
2018-07-03T17:20:16.265Z,31.30
2018-07-03T17:22:44.540Z,32.10
2018-07-03T17:25:12.796Z,33.40
2018-07-03T17:27:41.048Z,34.40
2018-07-03T17:30:09.305Z,35.10
2018-07-03T17:32:37.578Z,35.40
2018-07-03T17:35:05.861Z,35.60
2018-07-03T17:37:34.138Z,35.60
2018-07-03T17:40:13.612Z,35.50
2018-07-03T17:42:53.072Z,35.50
2018-07-03T17:45:43.545Z,35.60
2018-07-03T17:48:12.801Z,35.40
2018-07-03T17:50:41.169Z,34.80
2018-07-03T17:53:09.872Z,34.50
2018-07-03T17:55:38.180Z,34.40
2018-07-03T17:58:06.679Z,34.40
2018-07-03T18:00:34.972Z,34.70
2018-07-03T18:03:03.264Z,34.40
2018-07-03T18:05:32.005Z,34.10
2018-07-03T18:08:00.316Z,33.90
2018-07-03T18:10:28.596Z,33.80
2018-07-03T18:12:56.885Z,33.40
2018-07-03T18:15:25.194Z,33.20
2018-07-03T18:17:53.421Z,32.90
2018-07-03T18:20:21.805Z,32.40
2018-07-03T18:22:50.082Z,31.90
2018-07-03T18:25:18.373Z,31.70
2018-07-03T18:27:46.693Z,31.20
2018-07-03T18:30:14.966Z,30.80
2018-07-03T18:32:43.240Z,30.60
2018-07-03T18:35:11.545Z,30.10
2018-07-03T18:37:39.820Z,29.40
2018-07-03T18:40:08.119Z,28.70
2018-07-03T18:42:36.397Z,28.10
2018-07-03T18:45:05.185Z,27.50
2018-07-03T18:47:33.574Z,27.00
2018-07-03T18:50:01.864Z,26.50
2018-07-03T18:52:30.158Z,26.10
2018-07-03T18:54:58.521Z,25.70
2018-07-03T18:57:26.827Z,25.40
2018-07-03T18:59:55.128Z,25.10
2018-07-03T19:02:23.404Z,24.80
2018-07-03T19:04:51.748Z,24.60
2018-07-03T19:07:20.036Z,24.30
2018-07-03T19:09:48.323Z,24.00
2018-07-03T19:12:16.610Z,23.80
2018-07-03T19:14:51.305Z,23.60
2018-07-03T19:17:19.589Z,23.50
2018-07-03T19:19:47.865Z,23.30
2018-07-03T19:22:16.148Z,23.10
2018-07-03T19:24:44.426Z,23.00
2018-07-03T19:27:12.717Z,22.90
2018-07-03T19:29:40.981Z,22.80
2018-07-03T19:32:09.263Z,22.70
2018-07-03T19:34:37.547Z,22.50
2018-07-03T19:37:05.859Z,22.40
2018-07-03T19:39:34.132Z,22.30
2018-07-03T19:42:02.416Z,22.30
2018-07-03T19:44:30.705Z,22.20
2018-07-03T19:46:58.981Z,22.10
2018-07-03T19:49:27.272Z,22.00
2018-07-03T19:51:55.672Z,21.80
2018-07-03T19:54:23.976Z,21.70
2018-07-03T19:56:52.372Z,21.60
2018-07-03T19:59:20.656Z,21.50
2018-07-03T20:01:48.919Z,21.50
2018-07-03T20:04:17.201Z,21.30
2018-07-03T20:06:45.473Z,21.20
2018-07-03T20:09:14.124Z,21.00
2018-07-03T20:11:42.564Z,20.90
2018-07-03T20:14:10.820Z,20.80
2018-07-03T21:00:19.324Z,20.60
2018-07-03T21:05:51.132Z,19.90
2018-07-03T21:08:19.257Z,19.90
2018-07-03T21:10:47.766Z,19.90
2018-07-03T21:13:16.026Z,19.80
2018-07-03T21:15:44.270Z,19.80
2018-07-03T21:18:12.526Z,19.80
2018-07-03T21:20:40.764Z,19.70
2018-07-03T21:23:09.065Z,19.70
2018-07-03T21:25:37.331Z,19.60
2018-07-03T21:28:05.744Z,19.50
2018-07-03T21:30:34.006Z,19.50
2018-07-03T21:33:02.253Z,19.40
2018-07-03T21:35:30.506Z,19.40
2018-07-03T21:37:58.732Z,19.30
2018-07-03T21:40:27.010Z,19.40
2018-07-03T21:42:55.252Z,19.30
2018-07-03T21:45:23.517Z,19.30
2018-07-03T21:47:51.767Z,19.20
2018-07-03T21:50:20.020Z,19.20
2018-07-03T21:52:48.265Z,19.10
2018-07-03T21:55:16.592Z,19.00
2018-07-03T21:57:44.861Z,18.90
2018-07-03T22:00:14.842Z,18.80
2018-07-03T22:02:44.193Z,18.80
2018-07-03T22:05:13.772Z,18.70
2018-07-03T22:07:42.034Z,18.70
2018-07-03T22:10:10.289Z,18.70
2018-07-03T22:12:38.529Z,18.70
2018-07-03T22:15:06.545Z,18.70
2018-07-03T22:17:34.784Z,18.70
2018-07-03T22:20:03.042Z,18.60
2018-07-03T22:22:31.293Z,18.60
2018-07-03T22:24:59.543Z,18.50
2018-07-03T22:27:27.776Z,18.50
2018-07-03T22:29:56.037Z,18.50
2018-07-03T22:32:24.279Z,18.40
2018-07-03T22:34:52.537Z,18.40
2018-07-03T22:37:20.905Z,18.40
2018-07-03T22:39:49.236Z,18.30
2018-07-03T22:42:17.417Z,18.30
2018-07-03T22:44:45.668Z,18.30
2018-07-03T22:47:13.928Z,18.20
2018-07-03T22:49:42.173Z,18.10
2018-07-03T22:52:10.440Z,18.10
2018-07-03T22:54:38.735Z,18.10
2018-07-03T22:57:06.980Z,18.10
2018-07-03T22:59:35.248Z,18.00
2018-07-03T23:02:03.513Z,18.00
2018-07-03T23:04:31.789Z,18.00
2018-07-03T23:07:00.041Z,17.90
2018-07-03T23:09:28.317Z,18.00
2018-07-03T23:11:56.564Z,18.00
2018-07-03T23:14:24.809Z,17.90
2018-07-03T23:16:53.063Z,17.90
2018-07-03T23:19:21.322Z,17.80
2018-07-03T23:21:49.577Z,17.80
2018-07-03T23:24:17.825Z,17.80
2018-07-03T23:26:46.061Z,17.80
2018-07-03T23:29:14.323Z,17.90
2018-07-03T23:31:42.630Z,17.90
2018-07-03T23:34:10.832Z,17.90
2018-07-03T23:36:39.077Z,17.90
2018-07-03T23:39:08.344Z,17.90
2018-07-03T23:41:36.589Z,17.90
2018-07-03T23:44:04.890Z,17.80
2018-07-03T23:46:44.430Z,17.90
2018-07-03T23:49:23.908Z,17.90
2018-07-03T23:52:03.337Z,17.90
2018-07-03T23:54:42.883Z,17.90
2018-07-03T23:57:22.340Z,17.90
